createdAt,value
2023-03-11T00:05:26.738Z,2.60
2023-03-11T00:10:58.866Z,2.50
2023-03-11T00:16:27.215Z,2.30
2023-03-11T00:21:55.576Z,2.20
2023-03-11T00:27:23.794Z,2.10
2023-03-11T00:32:54.515Z,2.00
2023-03-11T00:38:23.101Z,1.90
2023-03-11T00:43:51.243Z,1.90
2023-03-11T00:49:19.340Z,1.80
2023-03-11T00:54:47.302Z,1.80
2023-03-11T01:00:19.189Z,1.70
2023-03-11T01:05:47.398Z,1.70
2023-03-11T01:11:15.629Z,1.70
2023-03-11T01:16:43.656Z,1.70
2023-03-11T01:22:11.786Z,1.70
2023-03-11T01:27:39.868Z,1.60
2023-03-11T01:33:11.371Z,1.60
2023-03-11T01:38:40.907Z,1.50
2023-03-11T01:44:11.461Z,1.50
2023-03-11T01:49:42.211Z,1.40
2023-03-11T01:55:10.732Z,1.40
2023-03-11T02:00:39.454Z,1.40
2023-03-11T02:06:12.949Z,1.30
2023-03-11T02:11:41.272Z,1.30
2023-03-11T02:17:10.010Z,1.20
2023-03-11T02:22:39.335Z,1.20
2023-03-11T02:28:11.842Z,1.10
2023-03-11T02:33:42.092Z,1.10
2023-03-11T02:39:10.592Z,1.00
2023-03-11T02:44:43.043Z,1.00
2023-03-11T02:50:14.670Z,1.00
2023-03-11T02:55:43.330Z,0.90
2023-03-11T03:01:11.803Z,0.90
2023-03-11T03:06:42.751Z,0.80
2023-03-11T03:12:12.011Z,0.80
2023-03-11T03:17:40.071Z,0.80
2023-03-11T03:23:09.837Z,0.70
2023-03-11T03:28:38.460Z,0.70
2023-03-11T03:34:08.656Z,0.60
2023-03-11T03:39:37.526Z,0.60
2023-03-11T03:45:08.568Z,0.50
2023-03-11T03:50:37.158Z,0.50
2023-03-11T03:56:11.514Z,0.50
2023-03-11T04:01:40.156Z,0.50
2023-03-11T04:07:08.538Z,0.40
2023-03-11T04:12:36.572Z,0.40
2023-03-11T04:18:05.638Z,0.40
2023-03-11T04:23:34.413Z,0.40
2023-03-11T04:29:03.321Z,0.40
2023-03-11T04:34:36.016Z,0.30
2023-03-11T04:40:06.276Z,0.30
2023-03-11T04:45:39.688Z,0.30
2023-03-11T04:51:08.509Z,0.30
2023-03-11T04:56:37.028Z,0.40
2023-03-11T05:02:07.783Z,0.40
2023-03-11T05:07:36.835Z,0.40
2023-03-11T05:13:06.078Z,0.50
2023-03-11T05:18:37.996Z,0.50
2023-03-11T05:24:06.608Z,0.60
2023-03-11T05:29:34.503Z,0.60
2023-03-11T05:35:02.865Z,0.60
2023-03-11T05:40:31.396Z,0.70
2023-03-11T05:45:59.933Z,0.70
2023-03-11T05:51:28.083Z,0.70
2023-03-11T05:56:57.621Z,0.70
2023-03-11T06:02:26.228Z,0.60
2023-03-11T06:07:55.748Z,0.60
2023-03-11T06:13:24.382Z,0.60
2023-03-11T06:18:54.335Z,0.50
2023-03-11T06:24:22.673Z,0.50
2023-03-11T06:29:54.468Z,0.40
2023-03-11T06:35:24.389Z,0.40
2023-03-11T06:40:53.661Z,0.40
2023-03-11T06:46:23.907Z,0.40
2023-03-11T06:51:53.844Z,0.40
2023-03-11T06:57:22.027Z,0.40
2023-03-11T07:02:51.625Z,0.40
2023-03-11T07:08:20.152Z,0.40
2023-03-11T07:13:49.309Z,0.40
2023-03-11T07:19:20.534Z,0.50
2023-03-11T07:24:50.117Z,0.50
2023-03-11T07:30:24.554Z,0.60
2023-03-11T07:36:08.156Z,0.60
2023-03-11T07:41:38.655Z,0.50
2023-03-11T07:47:10.149Z,0.60
2023-03-11T07:52:54.700Z,0.70
2023-03-11T07:58:29.122Z,0.80
2023-03-11T08:04:12.980Z,0.90
2023-03-11T08:09:49.573Z,1.20
2023-03-11T08:15:18.698Z,1.40
2023-03-11T08:20:47.604Z,1.50
2023-03-11T08:26:24.021Z,1.50
2023-03-11T08:32:20.495Z,1.60
2023-03-11T08:38:01.377Z,1.70
2023-03-11T08:43:29.547Z,1.90
2023-03-11T08:49:02.244Z,2.10
2023-03-11T08:54:35.210Z,2.40
2023-03-11T09:00:11.535Z,2.40
2023-03-11T09:05:42.857Z,2.50
2023-03-11T09:11:14.070Z,2.60
2023-03-11T09:16:44.723Z,2.60
2023-03-11T09:22:21.236Z,2.60
2023-03-11T09:27:49.323Z,2.80
2023-03-11T09:33:31.238Z,3.20
2023-03-11T09:39:05.582Z,3.30
2023-03-11T09:44:44.418Z,3.30
2023-03-11T09:50:40.811Z,3.20
2023-03-11T09:56:20.892Z,3.60
2023-03-11T10:01:51.786Z,4.10
2023-03-11T10:07:29.043Z,3.90
2023-03-11T10:13:13.466Z,4.10
2023-03-11T10:18:50.275Z,4.20
2023-03-11T10:24:55.077Z,4.30
2023-03-11T10:30:32.548Z,4.30
2023-03-11T10:36:07.451Z,4.20
2023-03-11T10:41:55.426Z,4.20
2023-03-11T10:47:25.843Z,4.40
2023-03-11T10:53:19.718Z,4.70
2023-03-11T10:58:50.695Z,4.80
2023-03-11T11:04:31.124Z,5.10
2023-03-11T11:10:21.698Z,5.00
2023-03-11T11:16:00.012Z,5.00
2023-03-11T11:21:43.352Z,5.10
2023-03-11T11:27:28.627Z,5.20
2023-03-11T11:32:57.038Z,5.30
2023-03-11T11:38:28.349Z,5.10
2023-03-11T11:44:06.377Z,4.90
2023-03-11T11:49:36.994Z,4.70
2023-03-11T11:55:20.523Z,5.00
2023-03-11T12:01:17.124Z,5.00
2023-03-11T12:07:13.084Z,4.90
2023-03-11T12:13:16.471Z,4.90
2023-03-11T12:19:05.187Z,4.90
2023-03-11T12:25:01.833Z,4.90
2023-03-11T12:30:36.881Z,5.00
2023-03-11T12:36:07.179Z,4.90
2023-03-11T12:41:43.067Z,5.00
2023-03-11T12:47:10.961Z,5.00
2023-03-11T12:52:55.906Z,5.20
2023-03-11T12:59:11.450Z,5.50
2023-03-11T13:05:23.150Z,5.50
2023-03-11T13:10:55.953Z,6.00
2023-03-11T13:16:24.147Z,6.70
2023-03-11T13:21:53.289Z,7.10
2023-03-11T13:27:37.161Z,7.70
2023-03-11T13:33:37.034Z,7.80
2023-03-11T13:39:12.635Z,8.10
2023-03-11T13:44:42.050Z,8.60
2023-03-11T13:50:21.324Z,8.90
2023-03-11T13:55:50.280Z,9.30
2023-03-11T14:01:19.330Z,9.80
2023-03-11T14:06:47.850Z,10.10
2023-03-11T14:12:18.613Z,10.90
2023-03-11T14:17:48.764Z,12.00
2023-03-11T14:23:19.994Z,12.80
2023-03-11T14:28:52.666Z,13.50
2023-03-11T14:34:25.548Z,14.30
2023-03-11T14:39:54.282Z,14.40
2023-03-11T14:45:25.515Z,14.70
2023-03-11T14:50:56.978Z,14.70
2023-03-11T14:56:27.677Z,15.30
2023-03-11T15:02:24.285Z,15.50
2023-03-11T15:07:59.991Z,15.70
2023-03-11T15:13:27.832Z,15.70
2023-03-11T15:18:56.258Z,15.30
2023-03-11T15:24:30.063Z,13.80
2023-03-11T15:29:59.388Z,12.90
2023-03-11T15:35:31.162Z,12.00
2023-03-11T15:41:02.447Z,11.50
2023-03-11T15:46:30.865Z,10.80
2023-03-11T15:52:03.768Z,9.30
2023-03-11T15:57:32.255Z,8.20
2023-03-11T16:03:01.782Z,7.90
2023-03-11T16:08:30.304Z,6.80
2023-03-11T16:13:58.969Z,6.10
2023-03-11T16:19:30.405Z,5.40
2023-03-11T16:25:04.129Z,4.90
2023-03-11T16:30:35.583Z,4.60
2023-03-11T16:36:07.121Z,4.10
2023-03-11T16:41:45.202Z,3.70
2023-03-11T16:47:14.836Z,3.40
2023-03-11T16:52:42.916Z,3.20
2023-03-11T16:58:12.169Z,3.00
2023-03-11T17:03:42.736Z,2.90
2023-03-11T17:09:11.769Z,2.80
2023-03-11T17:14:40.511Z,2.80
2023-03-11T17:20:10.160Z,2.70
2023-03-11T17:25:42.042Z,2.60
2023-03-11T17:31:15.509Z,2.60
2023-03-11T17:36:43.646Z,2.50
2023-03-11T17:42:14.294Z,2.50
2023-03-11T17:47:44.298Z,2.40
2023-03-11T17:53:12.600Z,2.40
2023-03-11T17:58:40.885Z,2.30
2023-03-11T18:04:09.076Z,2.30
2023-03-11T18:09:37.565Z,2.20
2023-03-11T18:15:12.055Z,2.10
2023-03-11T18:20:40.545Z,2.10
2023-03-11T18:26:11.098Z,2.00
2023-03-11T18:31:41.777Z,2.00
2023-03-11T18:37:10.513Z,2.00
2023-03-11T18:42:38.654Z,2.00
2023-03-11T18:48:07.022Z,2.00
2023-03-11T18:53:35.809Z,2.00
2023-03-11T18:59:03.715Z,1.90
2023-03-11T19:04:33.076Z,1.90
2023-03-11T19:10:01.606Z,1.80
2023-03-11T19:15:30.353Z,1.80
2023-03-11T19:21:02.254Z,1.80
2023-03-11T19:26:44.244Z,1.70
2023-03-11T19:32:13.779Z,1.70
2023-03-11T19:37:42.009Z,1.70
2023-03-11T19:43:10.864Z,1.70
2023-03-11T19:48:42.461Z,1.70
2023-03-11T19:54:11.886Z,1.70
2023-03-11T19:59:40.073Z,1.70
2023-03-11T20:05:09.161Z,1.70
2023-03-11T20:10:46.333Z,1.60
2023-03-11T20:16:18.866Z,1.60
2023-03-11T20:21:47.535Z,1.50
2023-03-11T20:27:15.694Z,1.50
2023-03-11T20:32:43.831Z,1.40
2023-03-11T20:38:13.169Z,1.40
2023-03-11T20:43:41.449Z,1.30
2023-03-11T20:49:09.801Z,1.20
2023-03-11T20:54:38.070Z,1.10
2023-03-11T21:00:11.533Z,1.10
2023-03-11T21:05:39.697Z,1.00
2023-03-11T21:11:08.569Z,0.90
2023-03-11T21:16:37.887Z,0.90
2023-03-11T21:22:06.977Z,0.80
2023-03-11T21:27:35.517Z,0.80
2023-03-11T21:33:04.062Z,0.80
2023-03-11T21:38:32.410Z,0.70
2023-03-11T21:44:00.911Z,0.70
2023-03-11T21:49:29.247Z,0.70
2023-03-11T21:54:57.463Z,0.60
2023-03-11T22:00:25.499Z,0.60
2023-03-11T22:06:01.696Z,0.50
2023-03-11T22:11:30.175Z,0.40
2023-03-11T22:16:58.710Z,0.40
2023-03-11T22:22:27.174Z,0.30
2023-03-11T22:27:56.941Z,0.30
2023-03-11T22:33:25.619Z,0.20
2023-03-11T22:38:54.193Z,0.10
2023-03-11T22:44:22.058Z,0.10
2023-03-11T22:49:50.295Z,0.00
2023-03-11T22:55:18.089Z,0.00
2023-03-11T23:00:46.177Z,-0.10
2023-03-11T23:06:17.989Z,-0.10
2023-03-11T23:11:46.848Z,-0.20
2023-03-11T23:17:15.808Z,-0.20
2023-03-11T23:22:44.549Z,-0.30
2023-03-11T23:28:12.950Z,-0.30
2023-03-11T23:33:42.078Z,-0.30
2023-03-11T23:39:10.326Z,-0.20
2023-03-11T23:44:38.409Z,-0.30
2023-03-11T23:50:06.915Z,-0.30
2023-03-11T23:55:38.504Z,-0.30
